Terminal Aerodrome Forecast
Issued by NWS

Current Version | Previous Version | Text Only | Print | Product List | Glossary On
Versions: 1 2 3 4 5 6 7 8 9 10 11 12 13 14 15 16 17 18 19 20 21 22 23 24
000 FTUS41 KBOX 261743 AAD TAFHYA TAF AMD KHYA 261743Z 2618/2718 15004KT P6SM BKN015 FM261900 16004KT 3SM BR SCT008 FM262100 17004KT 1/2SM FG BKN008 FM270000 18004KT 1/2SM FG BKN003 FM270300 00000KT 1/4SM FG OVC003 FM271100 VRB03KT 3/4SM BR OVC003 FM271600 15007KT 3SM BR OVC090=

USA.gov is the U.S. government's official web portal to all federal, state and local government web resources and services.